sensor_id;sensor_type;location;lat;lon;timestamp;P1;durP1;ratioP1;P2;durP2;ratioP2
50002;SDS011;35889;51.442;6.408;2022-08-24T00:02:21;0.60;;;0.60;;
50002;SDS011;35889;51.442;6.408;2022-08-24T00:04:46;0.60;;;0.60;;
50002;SDS011;35889;51.442;6.408;2022-08-24T00:07:12;0.50;;;0.50;;
50002;SDS011;35889;51.442;6.408;2022-08-24T00:09:39;0.60;;;0.60;;
50002;SDS011;35889;51.442;6.408;2022-08-24T00:12:05;0.60;;;0.60;;
50002;SDS011;35889;51.442;6.408;2022-08-24T00:14:30;0.60;;;0.60;;
50002;SDS011;35889;51.442;6.408;2022-08-24T00:16:56;0.60;;;0.60;;
50002;SDS011;35889;51.442;6.408;2022-08-24T00:19:22;0.50;;;0.50;;
50002;SDS011;35889;51.442;6.408;2022-08-24T00:21:48;0.60;;;0.60;;
50002;SDS011;35889;51.442;6.408;2022-08-24T00:24:15;0.57;;;0.57;;
50002;SDS011;35889;51.442;6.408;2022-08-24T00:26:41;0.60;;;0.60;;
50002;SDS011;35889;51.442;6.408;2022-08-24T00:29:06;0.60;;;0.60;;
50002;SDS011;35889;51.442;6.408;2022-08-24T00:31:31;0.60;;;0.60;;
50002;SDS011;35889;51.442;6.408;2022-08-24T00:33:57;0.60;;;0.60;;
50002;SDS011;35889;51.442;6.408;2022-08-24T00:36:23;0.60;;;0.60;;
50002;SDS011;35889;51.442;6.408;2022-08-24T00:38:49;0.52;;;0.52;;
50002;SDS011;35889;51.442;6.408;2022-08-24T00:41:15;0.60;;;0.60;;
50002;SDS011;35889;51.442;6.408;2022-08-24T00:43:53;0.60;;;0.60;;
50002;SDS011;35889;51.442;6.408;2022-08-24T00:46:24;0.60;;;0.60;;
50002;SDS011;35889;51.442;6.408;2022-08-24T00:48:57;0.60;;;0.60;;
50002;SDS011;35889;51.442;6.408;2022-08-24T00:51:27;0.60;;;0.60;;
50002;SDS011;35889;51.442;6.408;2022-08-24T00:53:57;0.60;;;0.60;;
50002;SDS011;35889;51.442;6.408;2022-08-24T00:56:37;0.50;;;0.50;;
50002;SDS011;35889;51.442;6.408;2022-08-24T00:59:12;0.60;;;0.60;;
50002;SDS011;35889;51.442;6.408;2022-08-24T01:01:40;0.60;;;0.60;;
50002;SDS011;35889;51.442;6.408;2022-08-24T01:04:09;0.60;;;0.60;;
50002;SDS011;35889;51.442;6.408;2022-08-24T01:06:40;0.60;;;0.60;;
50002;SDS011;35889;51.442;6.408;2022-08-24T01:09:05;0.60;;;0.60;;
50002;SDS011;35889;51.442;6.408;2022-08-24T01:11:31;0.60;;;0.60;;
50002;SDS011;35889;51.442;6.408;2022-08-24T01:13:57;0.60;;;0.60;;
50002;SDS011;35889;51.442;6.408;2022-08-24T01:16:24;0.50;;;0.50;;
50002;SDS011;35889;51.442;6.408;2022-08-24T01:19:21;0.60;;;0.60;;
50002;SDS011;35889;51.442;6.408;2022-08-24T01:22:06;0.60;;;0.60;;
50002;SDS011;35889;51.442;6.408;2022-08-24T01:24:56;0.60;;;0.60;;
50002;SDS011;35889;51.442;6.408;2022-08-24T01:27:22;0.60;;;0.60;;
50002;SDS011;35889;51.442;6.408;2022-08-24T01:29:47;0.60;;;0.60;;
50002;SDS011;35889;51.442;6.408;2022-08-24T01:32:14;0.60;;;0.60;;
50002;SDS011;35889;51.442;6.408;2022-08-24T01:34:40;0.60;;;0.60;;
50002;SDS011;35889;51.442;6.408;2022-08-24T01:37:06;0.52;;;0.52;;
50002;SDS011;35889;51.442;6.408;2022-08-24T01:39:38;0.60;;;0.60;;
50002;SDS011;35889;51.442;6.408;2022-08-24T01:42:05;0.60;;;0.60;;
50002;SDS011;35889;51.442;6.408;2022-08-24T01:44:35;0.60;;;0.60;;
50002;SDS011;35889;51.442;6.408;2022-08-24T01:47:02;0.60;;;0.60;;
50002;SDS011;35889;51.442;6.408;2022-08-24T01:49:30;0.60;;;0.60;;
50002;SDS011;35889;51.442;6.408;2022-08-24T01:51:58;0.60;;;0.60;;
50002;SDS011;35889;51.442;6.408;2022-08-24T01:54:24;0.60;;;0.60;;
50002;SDS011;35889;51.442;6.408;2022-08-24T01:56:50;0.60;;;0.60;;
50002;SDS011;35889;51.442;6.408;2022-08-24T01:59:16;0.50;;;0.50;;
50002;SDS011;35889;51.442;6.408;2022-08-24T02:01:46;0.57;;;0.57;;
50002;SDS011;35889;51.442;6.408;2022-08-24T02:04:14;0.55;;;0.55;;
50002;SDS011;35889;51.442;6.408;2022-08-24T02:06:39;0.60;;;0.60;;
50002;SDS011;35889;51.442;6.408;2022-08-24T02:09:08;0.65;;;0.65;;
50002;SDS011;35889;51.442;6.408;2022-08-24T02:11:33;0.60;;;0.60;;
50002;SDS011;35889;51.442;6.408;2022-08-24T02:14:00;0.60;;;0.60;;
50002;SDS011;35889;51.442;6.408;2022-08-24T02:16:26;0.60;;;0.60;;
50002;SDS011;35889;51.442;6.408;2022-08-24T02:18:52;0.60;;;0.60;;
50002;SDS011;35889;51.442;6.408;2022-08-24T02:21:17;0.60;;;0.60;;
50002;SDS011;35889;51.442;6.408;2022-08-24T02:23:45;0.60;;;0.60;;
50002;SDS011;35889;51.442;6.408;2022-08-24T02:26:10;0.60;;;0.60;;
50002;SDS011;35889;51.442;6.408;2022-08-24T02:28:36;0.60;;;0.60;;
50002;SDS011;35889;51.442;6.408;2022-08-24T02:31:02;0.60;;;0.60;;
50002;SDS011;35889;51.442;6.408;2022-08-24T02:33:30;0.60;;;0.60;;
50002;SDS011;35889;51.442;6.408;2022-08-24T02:35:57;0.60;;;0.60;;
50002;SDS011;35889;51.442;6.408;2022-08-24T02:38:22;0.60;;;0.60;;
50002;SDS011;35889;51.442;6.408;2022-08-24T02:40:48;0.60;;;0.60;;
50002;SDS011;35889;51.442;6.408;2022-08-24T02:43:14;0.60;;;0.60;;
50002;SDS011;35889;51.442;6.408;2022-08-24T02:45:40;0.60;;;0.60;;
50002;SDS011;35889;51.442;6.408;2022-08-24T02:48:07;0.60;;;0.60;;
50002;SDS011;35889;51.442;6.408;2022-08-24T02:50:36;0.60;;;0.60;;
50002;SDS011;35889;51.442;6.408;2022-08-24T02:53:04;0.60;;;0.60;;
50002;SDS011;35889;51.442;6.408;2022-08-24T02:55:30;0.60;;;0.60;;
50002;SDS011;35889;51.442;6.408;2022-08-24T02:57:55;0.60;;;0.60;;
50002;SDS011;35889;51.442;6.408;2022-08-24T03:00:21;0.60;;;0.60;;
50002;SDS011;35889;51.442;6.408;2022-08-24T03:02:50;0.57;;;0.57;;
50002;SDS011;35889;51.442;6.408;2022-08-24T03:05:16;0.70;;;0.70;;
50002;SDS011;35889;51.442;6.408;2022-08-24T03:07:43;0.60;;;0.60;;
50002;SDS011;35889;51.442;6.408;2022-08-24T03:10:09;0.60;;;0.60;;
50002;SDS011;35889;51.442;6.408;2022-08-24T03:12:35;0.60;;;0.60;;
50002;SDS011;35889;51.442;6.408;2022-08-24T03:15:02;0.60;;;0.60;;
50002;SDS011;35889;51.442;6.408;2022-08-24T03:17:29;0.60;;;0.60;;
50002;SDS011;35889;51.442;6.408;2022-08-24T03:19:58;0.60;;;0.60;;
50002;SDS011;35889;51.442;6.408;2022-08-24T03:22:24;0.60;;;0.60;;
50002;SDS011;35889;51.442;6.408;2022-08-24T03:24:50;0.60;;;0.60;;
50002;SDS011;35889;51.442;6.408;2022-08-24T03:27:16;0.60;;;0.60;;
50002;SDS011;35889;51.442;6.408;2022-08-24T03:29:42;0.60;;;0.60;;
50002;SDS011;35889;51.442;6.408;2022-08-24T03:32:08;0.60;;;0.60;;
50002;SDS011;35889;51.442;6.408;2022-08-24T03:34:34;0.60;;;0.60;;
50002;SDS011;35889;51.442;6.408;2022-08-24T03:37:00;0.60;;;0.60;;
50002;SDS011;35889;51.442;6.408;2022-08-24T03:39:26;0.60;;;0.60;;
50002;SDS011;35889;51.442;6.408;2022-08-24T03:41:53;0.60;;;0.60;;
50002;SDS011;35889;51.442;6.408;2022-08-24T03:44:18;0.60;;;0.60;;
50002;SDS011;35889;51.442;6.408;2022-08-24T03:46:44;0.60;;;0.60;;
50002;SDS011;35889;51.442;6.408;2022-08-24T03:49:11;0.60;;;0.60;;
50002;SDS011;35889;51.442;6.408;2022-08-24T03:51:38;0.60;;;0.60;;
50002;SDS011;35889;51.442;6.408;2022-08-24T03:54:06;0.60;;;0.60;;
50002;SDS011;35889;51.442;6.408;2022-08-24T03:56:33;0.60;;;0.60;;
50002;SDS011;35889;51.442;6.408;2022-08-24T03:59:00;0.55;;;0.55;;
50002;SDS011;35889;51.442;6.408;2022-08-24T04:01:29;0.60;;;0.60;;
50002;SDS011;35889;51.442;6.408;2022-08-24T04:03:56;0.60;;;0.60;;
50002;SDS011;35889;51.442;6.408;2022-08-24T04:06:27;0.63;;;0.63;;
50002;SDS011;35889;51.442;6.408;2022-08-24T04:08:53;0.60;;;0.60;;
50002;SDS011;35889;51.442;6.408;2022-08-24T04:11:20;0.60;;;0.60;;
50002;SDS011;35889;51.442;6.408;2022-08-24T04:13:47;0.60;;;0.60;;
50002;SDS011;35889;51.442;6.408;2022-08-24T04:16:17;0.60;;;0.60;;
50002;SDS011;35889;51.442;6.408;2022-08-24T04:18:43;0.57;;;0.57;;
50002;SDS011;35889;51.442;6.408;2022-08-24T04:23:41;0.60;;;0.60;;
50002;SDS011;35889;51.442;6.408;2022-08-24T04:26:06;0.60;;;0.60;;
50002;SDS011;35889;51.442;6.408;2022-08-24T04:28:32;0.60;;;0.60;;
50002;SDS011;35889;51.442;6.408;2022-08-24T04:30:57;0.60;;;0.60;;
50002;SDS011;35889;51.442;6.408;2022-08-24T04:33:34;0.60;;;0.60;;
50002;SDS011;35889;51.442;6.408;2022-08-24T04:35:59;0.60;;;0.60;;
50002;SDS011;35889;51.442;6.408;2022-08-24T04:38:28;0.60;;;0.60;;
50002;SDS011;35889;51.442;6.408;2022-08-24T04:41:17;0.60;;;0.60;;
50002;SDS011;35889;51.442;6.408;2022-08-24T04:43:46;0.60;;;0.60;;
50002;SDS011;35889;51.442;6.408;2022-08-24T04:46:13;0.60;;;0.60;;
50002;SDS011;35889;51.442;6.408;2022-08-24T04:48:40;0.60;;;0.60;;
50002;SDS011;35889;51.442;6.408;2022-08-24T04:51:07;0.60;;;0.60;;
50002;SDS011;35889;51.442;6.408;2022-08-24T04:53:35;0.60;;;0.60;;
50002;SDS011;35889;51.442;6.408;2022-08-24T04:56:01;0.60;;;0.60;;
50002;SDS011;35889;51.442;6.408;2022-08-24T04:58:28;0.50;;;0.50;;
50002;SDS011;35889;51.442;6.408;2022-08-24T05:00:54;0.60;;;0.60;;
50002;SDS011;35889;51.442;6.408;2022-08-24T05:03:20;0.60;;;0.60;;
50002;SDS011;35889;51.442;6.408;2022-08-24T05:05:48;0.60;;;0.60;;
50002;SDS011;35889;51.442;6.408;2022-08-24T05:08:15;0.60;;;0.60;;
50002;SDS011;35889;51.442;6.408;2022-08-24T05:10:42;0.60;;;0.60;;
50002;SDS011;35889;51.442;6.408;2022-08-24T05:13:09;0.60;;;0.60;;
50002;SDS011;35889;51.442;6.408;2022-08-24T05:15:39;0.60;;;0.60;;
50002;SDS011;35889;51.442;6.408;2022-08-24T05:18:05;0.60;;;0.60;;
50002;SDS011;35889;51.442;6.408;2022-08-24T05:20:31;0.60;;;0.60;;
50002;SDS011;35889;51.442;6.408;2022-08-24T05:22:57;0.60;;;0.60;;
50002;SDS011;35889;51.442;6.408;2022-08-24T05:25:23;0.60;;;0.60;;
50002;SDS011;35889;51.442;6.408;2022-08-24T05:27:48;0.70;;;0.70;;
50002;SDS011;35889;51.442;6.408;2022-08-24T05:30:16;0.60;;;0.60;;
50002;SDS011;35889;51.442;6.408;2022-08-24T05:32:42;0.60;;;0.60;;
50002;SDS011;35889;51.442;6.408;2022-08-24T05:35:07;0.60;;;0.60;;
50002;SDS011;35889;51.442;6.408;2022-08-24T05:37:34;0.60;;;0.60;;
50002;SDS011;35889;51.442;6.408;2022-08-24T05:40:20;0.60;;;0.60;;
50002;SDS011;35889;51.442;6.408;2022-08-24T05:42:52;0.60;;;0.60;;
50002;SDS011;35889;51.442;6.408;2022-08-24T05:45:17;0.60;;;0.60;;
50002;SDS011;35889;51.442;6.408;2022-08-24T05:47:43;0.60;;;0.60;;
50002;SDS011;35889;51.442;6.408;2022-08-24T05:50:26;0.50;;;0.50;;
50002;SDS011;35889;51.442;6.408;2022-08-24T05:52:52;0.60;;;0.60;;
50002;SDS011;35889;51.442;6.408;2022-08-24T05:55:18;0.57;;;0.57;;
50002;SDS011;35889;51.442;6.408;2022-08-24T05:57:44;0.60;;;0.60;;
50002;SDS011;35889;51.442;6.408;2022-08-24T06:00:20;0.50;;;0.50;;
50002;SDS011;35889;51.442;6.408;2022-08-24T06:02:48;0.50;;;0.50;;
50002;SDS011;35889;51.442;6.408;2022-08-24T06:05:17;0.52;;;0.52;;
50002;SDS011;35889;51.442;6.408;2022-08-24T06:07:43;0.60;;;0.60;;
50002;SDS011;35889;51.442;6.408;2022-08-24T06:10:10;0.60;;;0.60;;
50002;SDS011;35889;51.442;6.408;2022-08-24T06:12:36;0.60;;;0.60;;
50002;SDS011;35889;51.442;6.408;2022-08-24T06:15:03;0.63;;;0.63;;
50002;SDS011;35889;51.442;6.408;2022-08-24T06:17:29;0.60;;;0.60;;
50002;SDS011;35889;51.442;6.408;2022-08-24T06:19:55;0.60;;;0.60;;
50002;SDS011;35889;51.442;6.408;2022-08-24T06:22:21;0.60;;;0.60;;
50002;SDS011;35889;51.442;6.408;2022-08-24T06:24:47;0.65;;;0.65;;
50002;SDS011;35889;51.442;6.408;2022-08-24T06:27:31;0.60;;;0.60;;
50002;SDS011;35889;51.442;6.408;2022-08-24T06:29:58;0.60;;;0.60;;
50002;SDS011;35889;51.442;6.408;2022-08-24T06:32:59;0.70;;;0.70;;
50002;SDS011;35889;51.442;6.408;2022-08-24T06:35:46;0.60;;;0.60;;
50002;SDS011;35889;51.442;6.408;2022-08-24T06:38:11;0.60;;;0.60;;
50002;SDS011;35889;51.442;6.408;2022-08-24T06:40:37;0.60;;;0.60;;
50002;SDS011;35889;51.442;6.408;2022-08-24T06:43:03;0.60;;;0.60;;
50002;SDS011;35889;51.442;6.408;2022-08-24T06:45:44;0.60;;;0.60;;
50002;SDS011;35889;51.442;6.408;2022-08-24T06:48:12;0.60;;;0.60;;
50002;SDS011;35889;51.442;6.408;2022-08-24T06:50:38;0.57;;;0.57;;
50002;SDS011;35889;51.442;6.408;2022-08-24T06:53:04;0.60;;;0.60;;
50002;SDS011;35889;51.442;6.408;2022-08-24T06:55:31;0.60;;;0.60;;
50002;SDS011;35889;51.442;6.408;2022-08-24T06:57:56;0.70;;;0.70;;
50002;SDS011;35889;51.442;6.408;2022-08-24T07:00:23;0.68;;;0.68;;
50002;SDS011;35889;51.442;6.408;2022-08-24T07:02:49;0.60;;;0.60;;
50002;SDS011;35889;51.442;6.408;2022-08-24T07:05:16;0.70;;;0.70;;
50002;SDS011;35889;51.442;6.408;2022-08-24T07:08:01;0.60;;;0.60;;
50002;SDS011;35889;51.442;6.408;2022-08-24T07:10:28;0.60;;;0.60;;
50002;SDS011;35889;51.442;6.408;2022-08-24T07:12:54;0.60;;;0.60;;
50002;SDS011;35889;51.442;6.408;2022-08-24T07:15:20;0.60;;;0.60;;
50002;SDS011;35889;51.442;6.408;2022-08-24T07:17:57;0.70;;;0.70;;
50002;SDS011;35889;51.442;6.408;2022-08-24T07:20:23;0.70;;;0.70;;
50002;SDS011;35889;51.442;6.408;2022-08-24T07:23:14;0.60;;;0.60;;
50002;SDS011;35889;51.442;6.408;2022-08-24T07:25:41;0.68;;;0.68;;
50002;SDS011;35889;51.442;6.408;2022-08-24T07:28:07;0.60;;;0.60;;
50002;SDS011;35889;51.442;6.408;2022-08-24T07:30:33;0.60;;;0.60;;
50002;SDS011;35889;51.442;6.408;2022-08-24T07:32:59;0.68;;;0.68;;
50002;SDS011;35889;51.442;6.408;2022-08-24T07:35:28;0.70;;;0.70;;
50002;SDS011;35889;51.442;6.408;2022-08-24T07:37:56;0.70;;;0.70;;
50002;SDS011;35889;51.442;6.408;2022-08-24T07:40:22;0.70;;;0.70;;
50002;SDS011;35889;51.442;6.408;2022-08-24T07:42:49;0.60;;;0.60;;
50002;SDS011;35889;51.442;6.408;2022-08-24T07:45:16;0.70;;;0.70;;
50002;SDS011;35889;51.442;6.408;2022-08-24T07:47:48;0.70;;;0.70;;
50002;SDS011;35889;51.442;6.408;2022-08-24T07:50:28;0.70;;;0.70;;
50002;SDS011;35889;51.442;6.408;2022-08-24T07:52:53;0.70;;;0.70;;
50002;SDS011;35889;51.442;6.408;2022-08-24T07:55:19;0.70;;;0.70;;
50002;SDS011;35889;51.442;6.408;2022-08-24T07:57:45;0.60;;;0.60;;
50002;SDS011;35889;51.442;6.408;2022-08-24T08:00:13;0.70;;;0.70;;
50002;SDS011;35889;51.442;6.408;2022-08-24T08:02:47;0.60;;;0.60;;
50002;SDS011;35889;51.442;6.408;2022-08-24T08:05:15;0.60;;;0.60;;
50002;SDS011;35889;51.442;6.408;2022-08-24T08:07:46;0.70;;;0.70;;
50002;SDS011;35889;51.442;6.408;2022-08-24T08:10:12;0.60;;;0.60;;
50002;SDS011;35889;51.442;6.408;2022-08-24T08:12:38;0.70;;;0.70;;
50002;SDS011;35889;51.442;6.408;2022-08-24T08:15:04;0.70;;;0.70;;
50002;SDS011;35889;51.442;6.408;2022-08-24T08:17:31;0.70;;;0.70;;
50002;SDS011;35889;51.442;6.408;2022-08-24T08:19:57;0.60;;;0.60;;
50002;SDS011;35889;51.442;6.408;2022-08-24T08:22:23;0.63;;;0.63;;
50002;SDS011;35889;51.442;6.408;2022-08-24T08:25:26;0.60;;;0.60;;
50002;SDS011;35889;51.442;6.408;2022-08-24T08:27:51;0.70;;;0.70;;
50002;SDS011;35889;51.442;6.408;2022-08-24T08:30:18;0.70;;;0.70;;
50002;SDS011;35889;51.442;6.408;2022-08-24T08:32:43;0.60;;;0.60;;
50002;SDS011;35889;51.442;6.408;2022-08-24T08:35:09;0.70;;;0.70;;
50002;SDS011;35889;51.442;6.408;2022-08-24T08:37:35;0.63;;;0.63;;
50002;SDS011;35889;51.442;6.408;2022-08-24T08:40:02;0.70;;;0.70;;
50002;SDS011;35889;51.442;6.408;2022-08-24T09:10:07;0.70;;;0.70;;
50002;SDS011;35889;51.442;6.408;2022-08-24T09:12:58;0.70;;;0.70;;
50002;SDS011;35889;51.442;6.408;2022-08-24T09:15:54;0.70;;;0.70;;
50002;SDS011;35889;51.442;6.408;2022-08-24T09:23:37;0.70;;;0.70;;
50002;SDS011;35889;51.442;6.408;2022-08-24T09:26:22;0.70;;;0.70;;
50002;SDS011;35889;51.442;6.408;2022-08-24T09:34:06;0.70;;;0.70;;
50002;SDS011;35889;51.442;6.408;2022-08-24T09:39:26;0.70;;;0.70;;
50002;SDS011;35889;51.442;6.408;2022-08-24T09:42:07;0.70;;;0.70;;
50002;SDS011;35889;51.442;6.408;2022-08-24T09:47:54;0.70;;;0.70;;
50002;SDS011;35889;51.442;6.408;2022-08-24T09:50:53;0.70;;;0.70;;
50002;SDS011;35889;51.442;6.408;2022-08-24T10:04:35;0.70;;;0.70;;
50002;SDS011;35889;51.442;6.408;2022-08-24T10:12:49;0.63;;;0.63;;
50002;SDS011;35889;51.442;6.408;2022-08-24T10:18:33;0.70;;;0.70;;
50002;SDS011;35889;51.442;6.408;2022-08-24T10:21:08;0.60;;;0.60;;
50002;SDS011;35889;51.442;6.408;2022-08-24T10:51:08;0.60;;;0.60;;
50002;SDS011;35889;51.442;6.408;2022-08-24T10:54:04;0.70;;;0.70;;
50002;SDS011;35889;51.442;6.408;2022-08-24T10:59:21;0.70;;;0.70;;
50002;SDS011;35889;51.442;6.408;2022-08-24T11:04:28;0.70;;;0.70;;
50002;SDS011;35889;51.442;6.408;2022-08-24T11:09:45;0.70;;;0.70;;
50002;SDS011;35889;51.442;6.408;2022-08-24T11:12:17;0.70;;;0.70;;
50002;SDS011;35889;51.442;6.408;2022-08-24T11:14:57;0.70;;;0.70;;
50002;SDS011;35889;51.442;6.408;2022-08-24T11:17:25;0.80;;;0.80;;
50002;SDS011;35889;51.442;6.408;2022-08-24T11:19:52;0.70;;;0.70;;
50002;SDS011;35889;51.442;6.408;2022-08-24T11:25:03;0.60;;;0.60;;
50002;SDS011;35889;51.442;6.408;2022-08-24T11:27:40;0.70;;;0.70;;
50002;SDS011;35889;51.442;6.408;2022-08-24T11:40:49;0.70;;;0.70;;
50002;SDS011;35889;51.442;6.408;2022-08-24T11:46:05;0.73;;;0.73;;
50002;SDS011;35889;51.442;6.408;2022-08-24T11:48:34;0.70;;;0.70;;
50002;SDS011;35889;51.442;6.408;2022-08-24T11:51:09;0.70;;;0.70;;
50002;SDS011;35889;51.442;6.408;2022-08-24T11:56:35;0.70;;;0.70;;
50002;SDS011;35889;51.442;6.408;2022-08-24T12:01:54;0.70;;;0.70;;
50002;SDS011;35889;51.442;6.408;2022-08-24T12:07:30;0.70;;;0.70;;
50002;SDS011;35889;51.442;6.408;2022-08-24T12:10:08;0.70;;;0.70;;
50002;SDS011;35889;51.442;6.408;2022-08-24T12:12:52;0.70;;;0.70;;
50002;SDS011;35889;51.442;6.408;2022-08-24T12:18:02;0.70;;;0.70;;
50002;SDS011;35889;51.442;6.408;2022-08-24T12:20:42;0.60;;;0.60;;
50002;SDS011;35889;51.442;6.408;2022-08-24T12:23:16;0.70;;;0.70;;
50002;SDS011;35889;51.442;6.408;2022-08-24T12:25:44;0.70;;;0.70;;
50002;SDS011;35889;51.442;6.408;2022-08-24T12:28:36;0.70;;;0.70;;
50002;SDS011;35889;51.442;6.408;2022-08-24T12:31:21;0.70;;;0.70;;
50002;SDS011;35889;51.442;6.408;2022-08-24T12:33:53;0.60;;;0.60;;
50002;SDS011;35889;51.442;6.408;2022-08-24T12:36:24;0.70;;;0.70;;
50002;SDS011;35889;51.442;6.408;2022-08-24T12:39:12;0.70;;;0.70;;
50002;SDS011;35889;51.442;6.408;2022-08-24T12:41:54;0.70;;;0.70;;
50002;SDS011;35889;51.442;6.408;2022-08-24T12:44:24;0.80;;;0.80;;
50002;SDS011;35889;51.442;6.408;2022-08-24T12:46:55;0.70;;;0.70;;
50002;SDS011;35889;51.442;6.408;2022-08-24T12:49:31;0.70;;;0.70;;
50002;SDS011;35889;51.442;6.408;2022-08-24T12:52:38;0.60;;;0.60;;
50002;SDS011;35889;51.442;6.408;2022-08-24T12:55:26;0.70;;;0.70;;
50002;SDS011;35889;51.442;6.408;2022-08-24T12:58:08;0.68;;;0.68;;
50002;SDS011;35889;51.442;6.408;2022-08-24T13:00:47;0.70;;;0.70;;
50002;SDS011;35889;51.442;6.408;2022-08-24T13:03:25;0.70;;;0.70;;
50002;SDS011;35889;51.442;6.408;2022-08-24T13:05:57;0.70;;;0.70;;
50002;SDS011;35889;51.442;6.408;2022-08-24T13:11:09;0.77;;;0.77;;
50002;SDS011;35889;51.442;6.408;2022-08-24T13:16:43;0.75;;;0.75;;
50002;SDS011;35889;51.442;6.408;2022-08-24T13:19:17;0.70;;;0.70;;
50002;SDS011;35889;51.442;6.408;2022-08-24T13:25:01;0.60;;;0.60;;
50002;SDS011;35889;51.442;6.408;2022-08-24T13:27:46;0.70;;;0.70;;
50002;SDS011;35889;51.442;6.408;2022-08-24T13:30:18;0.60;;;0.60;;
50002;SDS011;35889;51.442;6.408;2022-08-24T13:32:48;0.60;;;0.60;;
50002;SDS011;35889;51.442;6.408;2022-08-24T13:35:33;0.65;;;0.65;;
50002;SDS011;35889;51.442;6.408;2022-08-24T13:41:16;0.70;;;0.70;;
50002;SDS011;35889;51.442;6.408;2022-08-24T13:43:57;0.60;;;0.60;;
50002;SDS011;35889;51.442;6.408;2022-08-24T13:52:22;0.70;;;0.70;;
50002;SDS011;35889;51.442;6.408;2022-08-24T14:00:43;0.70;;;0.70;;
50002;SDS011;35889;51.442;6.408;2022-08-24T14:08:22;1.00;;;1.00;;
50002;SDS011;35889;51.442;6.408;2022-08-24T14:22:00;1.20;;;1.20;;
50002;SDS011;35889;51.442;6.408;2022-08-24T14:24:42;1.20;;;1.20;;
50002;SDS011;35889;51.442;6.408;2022-08-24T14:27:12;1.20;;;1.20;;
50002;SDS011;35889;51.442;6.408;2022-08-24T14:33:07;1.20;;;1.20;;
50002;SDS011;35889;51.442;6.408;2022-08-24T14:46:02;1.20;;;1.20;;
50002;SDS011;35889;51.442;6.408;2022-08-24T14:56:52;1.30;;;1.30;;
50002;SDS011;35889;51.442;6.408;2022-08-24T15:00:03;1.20;;;1.20;;
50002;SDS011;35889;51.442;6.408;2022-08-24T15:10:27;1.30;;;1.30;;
50002;SDS011;35889;51.442;6.408;2022-08-24T15:12:59;1.30;;;1.30;;
50002;SDS011;35889;51.442;6.408;2022-08-24T15:15:33;1.30;;;1.30;;
50002;SDS011;35889;51.442;6.408;2022-08-24T15:29:08;1.20;;;1.20;;
50002;SDS011;35889;51.442;6.408;2022-08-24T15:31:38;1.20;;;1.20;;
50002;SDS011;35889;51.442;6.408;2022-08-24T15:34:04;1.10;;;1.10;;
50002;SDS011;35889;51.442;6.408;2022-08-24T15:36:30;1.10;;;1.10;;
50002;SDS011;35889;51.442;6.408;2022-08-24T15:38:58;1.10;;;1.10;;
50002;SDS011;35889;51.442;6.408;2022-08-24T15:41:31;1.02;;;1.02;;
50002;SDS011;35889;51.442;6.408;2022-08-24T15:44:05;1.10;;;1.10;;
50002;SDS011;35889;51.442;6.408;2022-08-24T15:46:32;1.20;;;1.20;;
50002;SDS011;35889;51.442;6.408;2022-08-24T15:51:43;1.20;;;1.20;;
50002;SDS011;35889;51.442;6.408;2022-08-24T15:54:26;1.20;;;1.20;;
50002;SDS011;35889;51.442;6.408;2022-08-24T15:56:57;1.20;;;1.20;;
50002;SDS011;35889;51.442;6.408;2022-08-24T15:59:52;1.30;;;1.30;;
50002;SDS011;35889;51.442;6.408;2022-08-24T16:02:23;1.20;;;1.20;;
50002;SDS011;35889;51.442;6.408;2022-08-24T16:18:21;1.00;;;1.00;;
50002;SDS011;35889;51.442;6.408;2022-08-24T16:20:50;1.00;;;1.00;;
50002;SDS011;35889;51.442;6.408;2022-08-24T16:23:23;1.00;;;1.00;;
50002;SDS011;35889;51.442;6.408;2022-08-24T16:28:42;0.80;;;0.80;;
50002;SDS011;35889;51.442;6.408;2022-08-24T16:31:07;0.80;;;0.80;;
50002;SDS011;35889;51.442;6.408;2022-08-24T16:33:43;0.80;;;0.80;;
50002;SDS011;35889;51.442;6.408;2022-08-24T16:36:19;0.75;;;0.75;;
50002;SDS011;35889;51.442;6.408;2022-08-24T16:38:46;0.70;;;0.70;;
50002;SDS011;35889;51.442;6.408;2022-08-24T16:41:13;0.70;;;0.70;;
50002;SDS011;35889;51.442;6.408;2022-08-24T16:43:43;0.60;;;0.60;;
50002;SDS011;35889;51.442;6.408;2022-08-24T16:46:10;0.60;;;0.60;;
50002;SDS011;35889;51.442;6.408;2022-08-24T16:48:37;0.60;;;0.60;;
50002;SDS011;35889;51.442;6.408;2022-08-24T16:51:03;0.68;;;0.68;;
50002;SDS011;35889;51.442;6.408;2022-08-24T16:53:29;0.60;;;0.60;;
50002;SDS011;35889;51.442;6.408;2022-08-24T16:55:54;0.63;;;0.63;;
50002;SDS011;35889;51.442;6.408;2022-08-24T16:58:20;0.60;;;0.60;;
50002;SDS011;35889;51.442;6.408;2022-08-24T17:00:51;0.60;;;0.60;;
50002;SDS011;35889;51.442;6.408;2022-08-24T17:03:17;0.60;;;0.60;;
50002;SDS011;35889;51.442;6.408;2022-08-24T17:05:42;0.60;;;0.60;;
50002;SDS011;35889;51.442;6.408;2022-08-24T17:08:08;0.60;;;0.60;;
50002;SDS011;35889;51.442;6.408;2022-08-24T17:10:34;0.60;;;0.60;;
50002;SDS011;35889;51.442;6.408;2022-08-24T17:12:59;0.60;;;0.60;;
50002;SDS011;35889;51.442;6.408;2022-08-24T17:15:25;0.60;;;0.60;;
50002;SDS011;35889;51.442;6.408;2022-08-24T17:17:55;0.60;;;0.60;;
50002;SDS011;35889;51.442;6.408;2022-08-24T17:20:25;0.60;;;0.60;;
50002;SDS011;35889;51.442;6.408;2022-08-24T17:22:52;0.60;;;0.60;;
50002;SDS011;35889;51.442;6.408;2022-08-24T17:25:17;0.60;;;0.60;;
50002;SDS011;35889;51.442;6.408;2022-08-24T17:27:43;0.70;;;0.70;;
50002;SDS011;35889;51.442;6.408;2022-08-24T17:30:08;0.65;;;0.65;;
50002;SDS011;35889;51.442;6.408;2022-08-24T17:32:35;0.60;;;0.60;;
50002;SDS011;35889;51.442;6.408;2022-08-24T17:35:01;0.60;;;0.60;;
50002;SDS011;35889;51.442;6.408;2022-08-24T17:37:27;0.60;;;0.60;;
50002;SDS011;35889;51.442;6.408;2022-08-24T17:39:54;0.70;;;0.70;;
50002;SDS011;35889;51.442;6.408;2022-08-24T17:42:20;0.60;;;0.60;;
50002;SDS011;35889;51.442;6.408;2022-08-24T17:44:46;0.60;;;0.60;;
50002;SDS011;35889;51.442;6.408;2022-08-24T17:47:11;0.60;;;0.60;;
50002;SDS011;35889;51.442;6.408;2022-08-24T17:49:37;0.50;;;0.50;;
50002;SDS011;35889;51.442;6.408;2022-08-24T17:52:03;0.60;;;0.60;;
50002;SDS011;35889;51.442;6.408;2022-08-24T17:54:29;0.60;;;0.60;;
50002;SDS011;35889;51.442;6.408;2022-08-24T17:56:55;0.60;;;0.60;;
50002;SDS011;35889;51.442;6.408;2022-08-24T17:59:24;0.60;;;0.60;;
50002;SDS011;35889;51.442;6.408;2022-08-24T18:01:58;0.57;;;0.57;;
50002;SDS011;35889;51.442;6.408;2022-08-24T18:04:29;0.60;;;0.60;;
50002;SDS011;35889;51.442;6.408;2022-08-24T18:06:55;0.60;;;0.60;;
50002;SDS011;35889;51.442;6.408;2022-08-24T18:12:12;0.60;;;0.60;;
50002;SDS011;35889;51.442;6.408;2022-08-24T18:14:42;0.60;;;0.60;;
50002;SDS011;35889;51.442;6.408;2022-08-24T18:17:12;0.50;;;0.50;;
50002;SDS011;35889;51.442;6.408;2022-08-24T18:19:41;0.50;;;0.50;;
50002;SDS011;35889;51.442;6.408;2022-08-24T18:22:07;0.60;;;0.60;;
50002;SDS011;35889;51.442;6.408;2022-08-24T18:24:33;0.60;;;0.60;;
50002;SDS011;35889;51.442;6.408;2022-08-24T18:27:03;0.60;;;0.60;;
50002;SDS011;35889;51.442;6.408;2022-08-24T18:29:31;0.52;;;0.52;;
50002;SDS011;35889;51.442;6.408;2022-08-24T18:31:57;0.55;;;0.55;;
50002;SDS011;35889;51.442;6.408;2022-08-24T18:34:23;0.60;;;0.60;;
50002;SDS011;35889;51.442;6.408;2022-08-24T18:36:49;0.57;;;0.57;;
50002;SDS011;35889;51.442;6.408;2022-08-24T18:39:15;0.50;;;0.50;;
50002;SDS011;35889;51.442;6.408;2022-08-24T18:41:42;0.60;;;0.60;;
50002;SDS011;35889;51.442;6.408;2022-08-24T18:44:09;0.50;;;0.50;;
50002;SDS011;35889;51.442;6.408;2022-08-24T18:46:36;0.50;;;0.50;;
50002;SDS011;35889;51.442;6.408;2022-08-24T18:49:02;0.60;;;0.60;;
50002;SDS011;35889;51.442;6.408;2022-08-24T18:51:29;0.60;;;0.60;;
50002;SDS011;35889;51.442;6.408;2022-08-24T18:54:01;0.52;;;0.52;;
50002;SDS011;35889;51.442;6.408;2022-08-24T18:58:54;0.60;;;0.60;;
50002;SDS011;35889;51.442;6.408;2022-08-24T19:01:22;0.60;;;0.60;;